Southern Star — IP8222 — position and weather

sailwx.info

Track history (hours):
 
Tides and Currents Weather Stations Pressure Air Temp Water Temp Dewpoint Dewpoint Depression Visibility Wind Speed Wind Dir Waves Ship Positions

Southern Star

Last reported at 2018-Feb-17 22:06 UTC. Time now 2018-Feb-18 09:04 UTC.
Position N 17°01' W 061°46'.

Type: Pleasure craft. MMSI: 247049130.

Date/timePositionNaut miles runAvg speedWind from/ knotsBaromVisibWave heightAir tempDewpointWater temp
2018-Feb-17 22:06N 17°01' W 061°46'0 0.0
2018-Feb-17 22:00N 17°01' W 061°46'0 0.0
2018-Feb-17 21:30N 17°01' W 061°46'0 0.0
2018-Feb-17 21:00N 17°01' W 061°46'0 0.4
2018-Feb-17 20:28N 17°01' W 061°47'0 0.6
2018-Feb-17 19:59N 17°01' W 061°47'0 0.0
2018-Feb-17 19:29N 17°01' W 061°47'0 0.0
2018-Feb-17 18:59N 17°01' W 061°47'0 0.0
2018-Feb-17 18:29N 17°01' W 061°47'0 0.0
2018-Feb-17 17:59N 17°01' W 061°47'0 0.0
2018-Feb-17 17:29N 17°01' W 061°47'0 0.0
2018-Feb-17 16:59N 17°01' W 061°47'0 0.0
2018-Feb-17 16:29N 17°01' W 061°47'0 0.0
2018-Feb-17 15:59N 17°01' W 061°47'0 0.0
2018-Feb-17 15:29N 17°01' W 061°47'0 0.0
2018-Feb-17 14:59N 17°01' W 061°47'0 0.0
2018-Feb-17 14:29N 17°01' W 061°47'0 0.0
2018-Feb-17 13:59N 17°01' W 061°47'0 0.0
2018-Feb-17 13:29N 17°01' W 061°47'0 0.0
2018-Feb-17 12:59N 17°01' W 061°47'0 0.0
2018-Feb-17 12:29N 17°01' W 061°47'0 0.0
2018-Feb-17 11:59N 17°01' W 061°47'0 0.0
2018-Feb-17 11:29N 17°01' W 061°47'0 0.0
2018-Feb-17 10:59N 17°01' W 061°47'0 0.1
2018-Feb-17 10:30N 17°01' W 061°47'2 4.5
2018-Feb-17 10:00N 16°59' W 061°49'1 2.4
2018-Feb-17 09:30N 16°60' W 061°50'1 2.7
2018-Feb-17 09:00N 16°59' W 061°51'3 5.0
2018-Feb-17 08:30N 16°57' W 061°52'4 7.2
2018-Feb-17 08:00N 16°53' W 061°53'4 8.8
2018-Feb-17 07:30N 16°49' W 061°53'5 8.9
2018-Feb-17 07:00N 16°44' W 061°54'4 8.7
2018-Feb-17 06:30N 16°40' W 061°54'4 8.2
2018-Feb-17 05:59N 16°36' W 061°54'5 9.6
2018-Feb-17 05:30N 16°31' W 061°55'  
Track history (hours):
 
Tides and Currents Weather Stations Pressure Air Temp Water Temp Dewpoint Dewpoint Depression Visibility Wind Speed Wind Dir Waves Ship Positions

Southern Star

Last reported at 2018-Feb-17 22:06 UTC. Time now 2018-Feb-18 09:04 UTC.
Position N 17°01' W 061°46'.

Type: Pleasure craft. MMSI: 247049130.

Date/timePositionNaut miles runAvg speedWind from/ knotsBaromVisibWave heightAir tempDewpointWater temp
2018-Feb-17 22:06N 17°01' W 061°46'0 0.0
2018-Feb-17 22:00N 17°01' W 061°46'0 0.0
2018-Feb-17 21:30N 17°01' W 061°46'0 0.0
2018-Feb-17 21:00N 17°01' W 061°46'0 0.4
2018-Feb-17 20:28N 17°01' W 061°47'0 0.6
2018-Feb-17 19:59N 17°01' W 061°47'0 0.0
2018-Feb-17 19:29N 17°01' W 061°47'0 0.0
2018-Feb-17 18:59N 17°01' W 061°47'0 0.0
2018-Feb-17 18:29N 17°01' W 061°47'0 0.0
2018-Feb-17 17:59N 17°01' W 061°47'0 0.0
2018-Feb-17 17:29N 17°01' W 061°47'0 0.0
2018-Feb-17 16:59N 17°01' W 061°47'0 0.0
2018-Feb-17 16:29N 17°01' W 061°47'0 0.0
2018-Feb-17 15:59N 17°01' W 061°47'0 0.0
2018-Feb-17 15:29N 17°01' W 061°47'0 0.0
2018-Feb-17 14:59N 17°01' W 061°47'0 0.0
2018-Feb-17 14:29N 17°01' W 061°47'0 0.0
2018-Feb-17 13:59N 17°01' W 061°47'0 0.0
2018-Feb-17 13:29N 17°01' W 061°47'0 0.0
2018-Feb-17 12:59N 17°01' W 061°47'0 0.0
2018-Feb-17 12:29N 17°01' W 061°47'0 0.0
2018-Feb-17 11:59N 17°01' W 061°47'0 0.0
2018-Feb-17 11:29N 17°01' W 061°47'0 0.0
2018-Feb-17 10:59N 17°01' W 061°47'0 0.1
2018-Feb-17 10:30N 17°01' W 061°47'2 4.5
2018-Feb-17 10:00N 16°59' W 061°49'1 2.4
2018-Feb-17 09:30N 16°60' W 061°50'1 2.7
2018-Feb-17 09:00N 16°59' W 061°51'3 5.0
2018-Feb-17 08:30N 16°57' W 061°52'4 7.2
2018-Feb-17 08:00N 16°53' W 061°53'4 8.8
2018-Feb-17 07:30N 16°49' W 061°53'5 8.9
2018-Feb-17 07:00N 16°44' W 061°54'4 8.7
2018-Feb-17 06:30N 16°40' W 061°54'4 8.2
2018-Feb-17 05:59N 16°36' W 061°54'5 9.6
2018-Feb-17 05:30N 16°31' W 061°55'  

Dump ship's entire track history